Time;durP1;ratioP1;P1;durP2;ratioP2;P2;SDS_P1;SDS_P2;PMS_P1;PMS_P2;Temp;Humidity;BMP_temperature;BMP_pressure;BME280_temperature;BME280_humidity;BME280_pressure;Samples;Min_cycle;Max_cycle;Signal;HPM_P1;HPM_P2
2023/06/13 00:00:18;;;;;;;6.65;6.13;;;12.90;61.40;;;;;;2096501;28;20179;-65
2023/06/13 00:01:20;;;;;;;7.83;7.23;;;12.80;61.30;;;;;;2087313;28;20280;-66
2023/06/13 00:02:22;;;;;;;14.02;13.20;;;12.80;61.20;;;;;;2096815;28;20224;-66
2023/06/13 00:03:23;;;;;;;8.48;7.90;;;12.80;61.60;;;;;;2097006;28;20294;-66
2023/06/13 00:04:24;;;;;;;5.70;5.20;;;12.80;61.40;;;;;;2096695;28;20787;-66
2023/06/13 00:05:25;;;;;;;6.87;6.33;;;12.90;61.40;;;;;;2096538;28;20227;-65
2023/06/13 00:06:29;;;;;;;6.33;5.73;;;12.90;61.60;;;;;;2099300;28;20234;-65
2023/06/13 00:07:32;;;;;;;7.65;7.00;;;12.80;61.70;;;;;;2100902;28;20838;-66
2023/06/13 00:08:33;;;;;;;7.00;5.80;;;12.90;61.40;;;;;;2098914;28;20613;-65
2023/06/13 00:09:34;;;;;;;12.77;11.87;;;12.90;61.30;;;;;;2110616;28;20237;-66
2023/06/13 00:10:34;;;;;;;5.90;4.60;;;12.90;62.20;;;;;;2104845;28;20275;-66
2023/06/13 00:11:35;;;;;;;10.23;9.53;;;12.90;62.00;;;;;;2102007;28;20265;-65
2023/06/13 00:12:36;;;;;;;6.35;5.78;;;12.90;63.10;;;;;;2100957;28;20231;-65
2023/06/13 00:13:40;;;;;;;6.07;5.53;;;12.90;63.20;;;;;;2098551;28;20759;-65
2023/06/13 00:14:41;;;;;;;5.00;4.60;;;12.80;63.50;;;;;;2104229;28;20492;-65
2023/06/13 00:15:51;;;;;;;6.63;6.03;;;12.80;63.90;;;;;;2103998;28;20649;-66
2023/06/13 00:16:54;;;;;;;6.70;5.63;;;12.80;64.60;;;;;;2096448;28;20260;-66
2023/06/13 00:17:55;;;;;;;5.75;5.15;;;12.70;64.80;;;;;;2087042;28;20223;-65
2023/06/13 00:18:56;;;;;;;6.38;4.57;;;12.70;64.80;;;;;;2092642;28;20292;-66
2023/06/13 00:19:59;;;;;;;5.97;4.67;;;12.70;64.50;;;;;;2095061;28;20280;-66
2023/06/13 00:21:00;;;;;;;5.68;5.10;;;12.70;64.80;;;;;;2094721;28;20308;-67
2023/06/13 00:22:01;;;;;;;5.43;4.07;;;12.60;64.60;;;;;;2093283;28;20861;-67
2023/06/13 00:23:03;;;;;;;3.83;3.53;;;12.60;64.00;;;;;;2093643;28;20553;-66
2023/06/13 00:24:05;;;;;;;5.30;4.45;;;12.60;63.60;;;;;;2096606;28;20842;-65
2023/06/13 00:25:06;;;;;;;4.63;4.18;;;12.60;63.90;;;;;;2095878;28;20205;-66
2023/06/13 00:26:08;;;;;;;3.97;3.58;;;12.50;63.90;;;;;;2096429;28;20190;-65
2023/06/13 00:27:10;;;;;;;4.00;3.60;;;12.50;63.60;;;;;;2088098;28;20192;-67
2023/06/13 00:28:11;;;;;;;4.82;4.00;;;12.50;63.60;;;;;;2096400;28;20218;-67
2023/06/13 00:29:14;;;;;;;4.30;3.80;;;12.50;63.70;;;;;;2094392;28;20184;-66
2023/06/13 00:30:14;;;;;;;3.78;3.38;;;12.50;64.70;;;;;;2092253;28;20180;-67
2023/06/13 00:31:16;;;;;;;4.83;4.07;;;12.50;63.30;;;;;;2076631;28;20204;-66
2023/06/13 00:32:17;;;;;;;5.65;4.32;;;12.50;63.30;;;;;;2073492;28;20229;-67
2023/06/13 00:33:18;;;;;;;4.30;3.67;;;12.40;63.20;;;;;;2092335;28;20184;-67
2023/06/13 00:34:19;;;;;;;4.43;3.60;;;12.40;63.70;;;;;;2099598;28;20716;-67
2023/06/13 00:35:19;;;;;;;6.40;4.13;;;12.40;64.20;;;;;;2099073;28;20223;-66
2023/06/13 00:36:20;;;;;;;4.17;3.53;;;12.50;64.60;;;;;;2095632;28;20292;-66
2023/06/13 00:37:22;;;;;;;5.23;3.43;;;12.40;64.20;;;;;;2094022;28;20705;-66
2023/06/13 00:38:24;;;;;;;4.15;3.53;;;12.40;64.10;;;;;;2089541;28;20318;-66
2023/06/13 00:39:25;;;;;;;3.83;3.42;;;12.40;64.10;;;;;;2079975;28;20233;-67
2023/06/13 00:40:26;;;;;;;4.80;3.93;;;12.40;64.30;;;;;;2084639;28;20226;-66
2023/06/13 00:41:30;;;;;;;5.33;3.70;;;12.40;64.20;;;;;;2092235;28;20733;-66
2023/06/13 00:42:31;;;;;;;8.02;4.57;;;12.40;64.50;;;;;;2084884;28;20851;-66
2023/06/13 00:43:32;;;;;;;5.13;4.17;;;12.40;65.20;;;;;;2088234;28;20228;-66
2023/06/13 00:44:34;;;;;;;6.18;4.47;;;12.50;65.50;;;;;;2096714;28;20246;-67
2023/06/13 00:45:35;;;;;;;5.40;4.53;;;12.40;65.60;;;;;;2096584;28;20269;-65
2023/06/13 00:46:36;;;;;;;10.40;4.87;;;12.40;66.00;;;;;;2095633;28;20296;-65
2023/06/13 00:47:37;;;;;;;5.90;5.30;;;12.30;66.60;;;;;;2093995;28;20615;-64
2023/06/13 00:48:38;;;;;;;7.80;5.30;;;12.30;67.40;;;;;;2085285;28;20235;-65
2023/06/13 00:49:40;;;;;;;5.70;5.03;;;12.20;68.00;;;;;;2087916;28;20269;-65
2023/06/13 00:50:41;;;;;;;5.20;4.20;;;12.20;68.10;;;;;;2085568;28;20562;-67
2023/06/13 00:51:42;;;;;;;4.83;4.23;;;12.20;67.40;;;;;;2088394;28;20231;-65
2023/06/13 00:52:43;;;;;;;6.38;4.20;;;12.10;67.40;;;;;;2095875;28;20728;-65
2023/06/13 00:53:47;;;;;;;5.57;4.10;;;12.10;67.00;;;;;;2103522;28;20238;-67
2023/06/13 00:54:48;;;;;;;9.65;4.65;;;12.10;66.80;;;;;;2095272;28;20324;-66
2023/06/13 00:55:50;;;;;;;4.47;3.33;;;12.10;66.10;;;;;;2096684;28;20263;-67
2023/06/13 00:56:51;;;;;;;6.22;3.80;;;12.00;66.00;;;;;;2102302;28;20230;-67
2023/06/13 00:58:05;;;;;;;5.60;4.07;;;12.00;66.20;;;;;;2095926;28;20311;-67
2023/06/13 00:59:07;;;;;;;7.20;3.35;;;12.00;66.30;;;;;;2096859;28;20222;-67
2023/06/13 01:00:11;;;;;;;4.88;3.63;;;12.00;66.60;;;;;;2093342;28;20273;-67
2023/06/13 01:01:13;;;;;;;4.10;3.40;;;12.00;67.10;;;;;;2091984;28;20215;-67
2023/06/13 01:02:20;;;;;;;4.57;3.65;;;12.00;67.00;;;;;;2084426;28;20287;-67
2023/06/13 01:03:21;;;;;;;4.32;3.80;;;11.90;67.00;;;;;;2089711;28;20370;-67
2023/06/13 01:04:22;;;;;;;5.17;4.00;;;11.90;66.90;;;;;;2104664;28;20225;-67
2023/06/13 01:05:26;;;;;;;5.57;4.43;;;11.90;67.80;;;;;;2104429;28;20236;-67
2023/06/13 01:06:30;;;;;;;5.18;4.25;;;11.90;68.00;;;;;;2096770;28;20238;-67
2023/06/13 01:07:33;;;;;;;5.20;4.70;;;11.90;68.60;;;;;;2092530;28;20268;-67
2023/06/13 01:08:40;;;;;;;9.27;5.13;;;11.90;69.60;;;;;;2100702;28;20226;-67
2023/06/13 01:09:41;;;;;;;5.82;4.95;;;11.80;70.50;;;;;;2103388;28;20225;-67
2023/06/13 01:10:42;;;;;;;6.43;4.67;;;11.80;71.00;;;;;;2104351;28;20332;-67
2023/06/13 01:12:06;;;;;;;5.10;4.47;;;11.70;71.30;;;;;;2102933;28;20604;-67
2023/06/13 01:13:17;;;;;;;7.22;4.55;;;11.70;71.70;;;;;;2092107;28;20247;-68
2023/06/13 01:14:40;;;;;;;6.72;4.65;;;11.70;72.00;;;;;;2097346;28;20183;-67
2023/06/13 01:15:58;;;;;;;6.03;4.47;;;11.60;71.90;;;;;;2102440;28;20625;-67
2023/06/13 01:17:12;;;;;;;4.88;4.38;;;11.60;71.90;;;;;;2100307;28;20652;-67
2023/06/13 01:18:17;;;;;;;3.67;3.33;;;11.60;72.00;;;;;;2092701;28;20234;-67
2023/06/13 01:19:42;;;;;;;5.85;4.00;;;11.50;72.00;;;;;;2103989;28;20189;-67
2023/06/13 01:20:44;;;;;;;8.52;4.00;;;11.50;72.00;;;;;;2103810;28;20230;-67
2023/06/13 01:21:52;;;;;;;6.53;4.07;;;11.40;71.80;;;;;;2102660;28;20260;-67
2023/06/13 01:23:08;;;;;;;7.35;3.60;;;11.50;72.00;;;;;;2103073;28;20230;-67
2023/06/13 01:24:27;;;;;;;5.85;3.97;;;11.50;71.80;;;;;;2107641;28;20596;-67
2023/06/13 01:25:47;;;;;;;4.35;3.55;;;11.40;71.30;;;;;;2097948;28;20280;-67
2023/06/13 01:26:57;;;;;;;4.90;3.22;;;11.40;70.90;;;;;;2103684;28;20706;-69
2023/06/13 01:28:00;;;;;;;4.53;3.65;;;11.50;70.60;;;;;;2100503;28;20306;-67
2023/06/13 01:29:01;;;;;;;4.57;3.65;;;11.40;70.70;;;;;;2105031;28;20273;-67
2023/06/13 01:30:05;;;;;;;4.13;3.35;;;11.40;70.70;;;;;;2105814;28;20199;-67
2023/06/13 01:31:11;;;;;;;5.65;4.13;;;11.40;71.00;;;;;;2098653;28;20200;-67
2023/06/13 01:32:13;;;;;;;6.50;4.15;;;11.30;72.40;;;;;;2093281;28;20676;-67
2023/06/13 01:33:17;;;;;;;5.32;4.13;;;11.30;72.90;;;;;;2088005;28;20221;-66
2023/06/13 01:34:19;;;;;;;7.47;4.13;;;11.30;73.30;;;;;;2088872;28;20215;-67
2023/06/13 01:35:21;;;;;;;4.50;3.90;;;11.30;73.20;;;;;;2095572;28;20182;-67
2023/06/13 01:36:22;;;;;;;6.38;4.55;;;11.30;73.00;;;;;;2092492;28;20238;-66
2023/06/13 01:37:24;;;;;;;6.37;3.73;;;11.30;72.30;;;;;;2104027;28;20793;-67
2023/06/13 01:38:25;;;;;;;4.75;3.95;;;11.30;72.40;;;;;;2103041;28;20227;-66
2023/06/13 01:39:26;;;;;;;5.03;3.65;;;11.20;72.30;;;;;;2096024;28;20235;-66
2023/06/13 01:40:27;;;;;;;10.23;4.83;;;11.20;72.30;;;;;;2096287;28;20580;-66
2023/06/13 01:41:28;;;;;;;5.57;4.00;;;11.20;72.70;;;;;;2104010;28;20237;-66
2023/06/13 01:42:28;;;;;;;3.90;3.50;;;11.20;73.00;;;;;;2087602;28;20249;-67
2023/06/13 01:43:29;;;;;;;4.33;3.93;;;11.20;73.10;;;;;;2095458;28;20310;-66
2023/06/13 01:44:30;;;;;;;5.10;3.57;;;11.20;73.00;;;;;;2104524;28;20250;-67
2023/06/13 01:45:31;;;;;;;4.43;3.72;;;11.10;73.20;;;;;;2095634;28;20242;-67
2023/06/13 01:47:12;;;;;;;4.53;4.10;;;11.00;73.50;;;;;;2096061;28;20226;-67
2023/06/13 01:48:30;;;;;;;4.28;3.60;;;11.00;73.70;;;;;;2098165;28;20238;-66
2023/06/13 01:50:16;;;;;;;3.88;3.35;;;11.00;74.20;;;;;;2091538;28;20580;-67
2023/06/13 01:51:31;;;;;;;4.72;4.00;;;11.00;74.10;;;;;;2105591;28;20204;-66
2023/06/13 01:53:07;;;;;;;3.85;3.33;;;11.00;74.20;;;;;;2094410;28;20320;-67
2023/06/13 01:54:11;;;;;;;4.47;3.63;;;10.90;74.20;;;;;;2093082;28;20784;-66
2023/06/13 01:55:22;;;;;;;4.60;3.45;;;10.90;74.10;;;;;;2092906;28;20186;-67
2023/06/13 01:56:31;;;;;;;4.05;3.58;;;10.90;74.20;;;;;;2097069;28;20229;-66
2023/06/13 01:57:44;;;;;;;6.15;3.92;;;10.90;74.40;;;;;;2093285;28;20263;-66
2023/06/13 01:58:59;;;;;;;6.78;4.50;;;10.80;75.00;;;;;;2094151;28;20234;-66
2023/06/13 02:00:01;;;;;;;6.47;4.68;;;10.70;76.50;;;;;;2100465;28;20234;-68
2023/06/13 02:01:05;;;;;;;6.00;4.75;;;10.70;77.20;;;;;;2110203;28;20192;-67
2023/06/13 02:02:08;;;;;;;7.28;4.53;;;10.70;77.30;;;;;;2092303;28;20186;-66
2023/06/13 02:03:12;;;;;;;5.40;4.60;;;10.60;77.50;;;;;;2088138;28;20713;-67
2023/06/13 02:04:12;;;;;;;6.65;4.80;;;10.60;77.80;;;;;;2087268;28;20183;-67
2023/06/13 02:05:14;;;;;;;5.43;4.73;;;10.70;77.90;;;;;;2103943;28;20535;-67
2023/06/13 02:06:15;;;;;;;5.45;4.90;;;10.60;78.10;;;;;;2103782;28;20185;-65
2023/06/13 02:07:16;;;;;;;6.47;4.83;;;10.60;78.30;;;;;;2103414;28;20181;-66
2023/06/13 02:08:16;;;;;;;7.03;4.83;;;10.60;78.40;;;;;;2100554;28;20485;-66
2023/06/13 02:09:17;;;;;;;5.60;4.90;;;10.60;78.20;;;;;;2096860;28;20175;-67
2023/06/13 02:10:18;;;;;;;5.80;5.00;;;10.60;78.50;;;;;;2101999;28;20188;-66
2023/06/13 02:11:19;;;;;;;7.53;5.70;;;10.60;78.60;;;;;;2102070;28;20196;-66
2023/06/13 02:12:20;;;;;;;6.90;5.23;;;10.60;78.70;;;;;;2101663;28;20240;-66
2023/06/13 02:13:22;;;;;;;6.90;6.10;;;10.60;79.50;;;;;;2100814;28;20226;-67
2023/06/13 02:14:23;;;;;;;7.40;5.07;;;10.50;79.60;;;;;;2100925;28;20297;-67
2023/06/13 02:15:24;;;;;;;6.50;4.97;;;10.50;79.90;;;;;;2104266;28;20706;-67
2023/06/13 02:16:29;;;;;;;7.87;5.37;;;10.40;79.80;;;;;;2104285;28;20229;-67
2023/06/13 02:17:30;;;;;;;7.32;5.15;;;10.40;79.80;;;;;;2103092;28;20229;-66
2023/06/13 02:18:31;;;;;;;9.80;4.67;;;10.40;80.00;;;;;;2101862;28;20937;-66
2023/06/13 02:19:31;;;;;;;5.57;4.20;;;10.30;79.60;;;;;;2103745;28;20236;-67
2023/06/13 02:20:34;;;;;;;4.80;3.63;;;10.40;79.00;;;;;;2104805;28;20535;-66
2023/06/13 02:21:35;;;;;;;4.10;3.42;;;10.40;77.90;;;;;;2092523;28;20669;-67
2023/06/13 02:22:36;;;;;;;5.82;3.58;;;10.30;77.80;;;;;;2087495;28;20289;-66
2023/06/13 02:23:37;;;;;;;5.73;4.13;;;10.40;77.80;;;;;;2095676;28;20303;-66
2023/06/13 02:24:40;;;;;;;3.92;3.53;;;10.40;77.80;;;;;;2103669;28;20234;-66
2023/06/13 02:25:41;;;;;;;5.03;3.80;;;10.40;77.50;;;;;;2102929;28;20226;-66
2023/06/13 02:26:41;;;;;;;6.80;3.60;;;10.40;77.20;;;;;;2102519;28;20230;-66
2023/06/13 02:27:42;;;;;;;4.60;3.60;;;10.50;76.80;;;;;;2101494;28;20239;-66
2023/06/13 02:28:43;;;;;;;6.03;3.70;;;10.50;76.40;;;;;;2107883;28;20726;-67
2023/06/13 02:29:44;;;;;;;4.97;3.30;;;10.60;76.10;;;;;;2100798;28;20229;-66
2023/06/13 02:30:45;;;;;;;4.53;3.53;;;10.50;76.00;;;;;;2099658;28;20765;-67
2023/06/13 02:31:45;;;;;;;7.45;3.63;;;10.60;75.80;;;;;;2104145;28;20223;-66
2023/06/13 02:32:50;;;;;;;5.33;3.83;;;10.60;75.60;;;;;;2100308;28;20300;-67
2023/06/13 02:33:51;;;;;;;3.92;3.22;;;10.60;75.60;;;;;;2103768;28;20230;-66
2023/06/13 02:34:52;;;;;;;6.23;3.13;;;10.60;75.40;;;;;;2099947;28;20670;-66
2023/06/13 02:35:53;;;;;;;5.57;3.63;;;10.70;75.20;;;;;;2099660;28;20241;-67
2023/06/13 02:36:53;;;;;;;4.53;3.60;;;10.70;75.20;;;;;;2104110;28;20249;-66
2023/06/13 02:37:54;;;;;;;5.53;3.73;;;10.70;75.20;;;;;;2100114;28;20330;-66
2023/06/13 02:38:55;;;;;;;3.80;3.30;;;10.70;75.10;;;;;;2095403;28;20226;-66
2023/06/13 02:39:55;;;;;;;4.17;3.00;;;10.60;75.10;;;;;;2091883;28;20231;-66
2023/06/13 02:40:56;;;;;;;3.60;3.30;;;10.70;75.10;;;;;;2095584;28;20241;-66
2023/06/13 02:41:57;;;;;;;3.50;3.00;;;10.70;74.90;;;;;;2100244;28;20647;-67
2023/06/13 02:42:58;;;;;;;5.30;3.60;;;10.70;74.90;;;;;;2095947;28;20227;-66
2023/06/13 02:43:58;;;;;;;4.53;3.40;;;10.70;75.60;;;;;;2095653;28;20559;-67
2023/06/13 02:44:59;;;;;;;4.27;3.27;;;10.70;74.80;;;;;;2101726;28;20223;-66
2023/06/13 02:46:00;;;;;;;3.47;3.10;;;10.70;75.10;;;;;;2102980;28;20217;-68
2023/06/13 02:47:01;;;;;;;4.95;3.05;;;10.70;75.10;;;;;;2104009;28;20277;-67
2023/06/13 02:48:02;;;;;;;5.10;2.97;;;10.70;74.80;;;;;;2100372;28;20216;-66
2023/06/13 02:49:03;;;;;;;4.47;3.33;;;10.70;74.90;;;;;;2094660;28;20187;-67
2023/06/13 02:50:04;;;;;;;4.10;3.70;;;10.70;74.80;;;;;;2094845;28;20771;-66
2023/06/13 02:51:07;;;;;;;3.80;3.30;;;10.70;74.80;;;;;;2102158;28;20188;-68
2023/06/13 02:52:08;;;;;;;4.15;3.50;;;10.70;74.80;;;;;;2087746;28;20192;-66
2023/06/13 02:53:11;;;;;;;4.90;3.57;;;10.70;74.80;;;;;;2096423;28;20261;-66
2023/06/13 02:54:12;;;;;;;4.05;3.35;;;10.70;75.10;;;;;;2104460;28;20209;-66
2023/06/13 02:55:13;;;;;;;5.57;3.30;;;10.70;75.20;;;;;;2101193;28;20617;-66
2023/06/13 02:56:13;;;;;;;5.47;3.23;;;10.70;75.20;;;;;;2087367;28;20282;-67
2023/06/13 02:57:16;;;;;;;4.15;3.25;;;10.70;75.30;;;;;;2095625;28;20620;-68
2023/06/13 02:58:17;;;;;;;4.05;3.60;;;10.70;75.10;;;;;;2102833;28;20212;-66
2023/06/13 02:59:19;;;;;;;4.17;3.50;;;10.70;74.90;;;;;;2094357;28;20189;-67
2023/06/13 03:00:20;;;;;;;4.80;3.78;;;10.70;75.40;;;;;;2093644;28;20279;-66
2023/06/13 03:01:21;;;;;;;6.83;3.83;;;10.60;76.10;;;;;;2092769;28;20592;-66
2023/06/13 03:02:25;;;;;;;5.63;4.27;;;10.60;76.70;;;;;;2100914;28;20232;-66
2023/06/13 03:03:26;;;;;;;5.90;4.50;;;10.60;77.00;;;;;;2100043;28;20226;-66
2023/06/13 03:04:28;;;;;;;4.40;3.63;;;10.40;77.20;;;;;;2092356;28;20235;-66
2023/06/13 03:05:30;;;;;;;5.85;4.47;;;10.40;77.50;;;;;;2103370;28;20305;-66
2023/06/13 03:06:31;;;;;;;5.00;4.00;;;10.30;78.10;;;;;;2103627;28;20226;-66
2023/06/13 03:07:32;;;;;;;8.33;4.27;;;10.20;78.40;;;;;;2102305;28;20231;-67
2023/06/13 03:08:32;;;;;;;7.13;4.57;;;10.20;78.70;;;;;;2095429;28;20320;-66
2023/06/13 03:09:33;;;;;;;4.33;3.93;;;10.20;78.90;;;;;;2104509;28;20266;-66
2023/06/13 03:10:34;;;;;;;6.30;4.00;;;10.00;79.50;;;;;;2105532;28;20229;-66
2023/06/13 03:11:35;;;;;;;5.30;4.20;;;10.10;79.90;;;;;;2105529;28;20727;-67
2023/06/13 03:12:38;;;;;;;4.93;3.70;;;10.10;79.80;;;;;;2104554;28;20218;-66
2023/06/13 03:13:38;;;;;;;4.75;4.15;;;10.00;80.00;;;;;;2104055;28;20237;-66
2023/06/13 03:14:39;;;;;;;5.67;4.27;;;10.00;80.60;;;;;;2105716;28;20229;-67
2023/06/13 03:15:40;;;;;;;6.33;4.17;;;10.00;80.60;;;;;;2105464;28;20244;-67
2023/06/13 03:16:42;;;;;;;4.85;4.13;;;10.00;80.70;;;;;;2105385;28;20226;-66
2023/06/13 03:17:43;;;;;;;5.72;4.57;;;10.00;80.60;;;;;;2105095;28;20603;-67
2023/06/13 03:18:44;;;;;;;5.97;3.95;;;10.00;80.70;;;;;;2101914;28;20227;-66
2023/06/13 03:19:46;;;;;;;5.30;4.33;;;10.00;80.50;;;;;;2102863;28;20229;-66
2023/06/13 03:20:47;;;;;;;5.22;4.57;;;9.90;80.80;;;;;;2101762;28;20730;-66
2023/06/13 03:21:48;;;;;;;4.60;3.90;;;9.90;80.80;;;;;;2105496;28;20238;-66
2023/06/13 03:22:49;;;;;;;6.07;4.00;;;9.90;81.20;;;;;;2105521;28;20231;-66
2023/06/13 03:23:49;;;;;;;5.83;3.97;;;9.90;81.20;;;;;;2088887;28;20222;-66
2023/06/13 03:24:50;;;;;;;5.37;4.10;;;9.80;81.40;;;;;;2094701;28;20252;-66
2023/06/13 03:25:51;;;;;;;4.80;4.23;;;9.80;81.60;;;;;;2096272;28;20226;-66
2023/06/13 03:26:52;;;;;;;5.27;3.70;;;9.70;83.00;;;;;;2097272;28;20518;-66
2023/06/13 03:27:53;;;;;;;5.93;3.58;;;9.80;82.60;;;;;;2109799;28;20227;-66
2023/06/13 03:28:54;;;;;;;5.47;3.40;;;9.80;82.50;;;;;;2100854;28;20318;-66
2023/06/13 03:29:55;;;;;;;5.55;4.03;;;9.70;82.30;;;;;;2105603;28;20225;-66
2023/06/13 03:30:57;;;;;;;4.13;3.70;;;9.70;82.40;;;;;;2102930;28;20608;-66
2023/06/13 03:32:00;;;;;;;4.22;3.35;;;9.80;82.70;;;;;;2110035;28;20238;-66
2023/06/13 03:33:01;;;;;;;4.63;3.50;;;9.80;82.40;;;;;;2110124;28;20222;-66
2023/06/13 03:34:03;;;;;;;8.27;4.13;;;9.80;82.00;;;;;;2105161;28;20279;-66
2023/06/13 03:35:04;;;;;;;6.20;3.20;;;9.80;81.90;;;;;;2096925;28;20439;-65
2023/06/13 03:36:05;;;;;;;3.70;3.30;;;9.80;82.30;;;;;;2102043;28;20187;-65
2023/06/13 03:37:09;;;;;;;3.97;3.30;;;9.90;82.40;;;;;;2102011;28;20574;-65
2023/06/13 03:38:10;;;;;;;4.00;3.50;;;9.90;82.00;;;;;;2101318;28;20208;-65
2023/06/13 03:39:11;;;;;;;4.72;3.65;;;9.90;81.20;;;;;;2105105;28;20680;-65
2023/06/13 03:40:13;;;;;;;4.32;3.25;;;10.00;81.10;;;;;;2104013;28;20558;-65
2023/06/13 03:41:14;;;;;;;4.05;2.78;;;10.00;80.80;;;;;;2095226;28;20669;-66
2023/06/13 03:42:15;;;;;;;4.97;3.23;;;10.00;80.80;;;;;;2100789;28;20196;-65
2023/06/13 03:43:15;;;;;;;5.20;3.60;;;10.10;80.50;;;;;;2096552;28;20183;-66
2023/06/13 03:44:16;;;;;;;4.27;3.47;;;10.10;80.00;;;;;;2097221;28;20194;-66
2023/06/13 03:45:19;;;;;;;4.40;3.73;;;10.10;79.70;;;;;;2088461;28;20195;-65
2023/06/13 03:46:21;;;;;;;5.20;3.33;;;10.20;79.40;;;;;;2097362;28;20880;-66
2023/06/13 03:47:21;;;;;;;4.35;3.22;;;10.20;79.30;;;;;;2104339;28;20303;-66
2023/06/13 03:48:22;;;;;;;4.00;3.20;;;10.20;79.30;;;;;;2104906;28;20859;-65
2023/06/13 03:49:24;;;;;;;4.63;3.77;;;10.20;79.40;;;;;;2105578;28;20302;-66
2023/06/13 03:50:25;;;;;;;4.20;3.80;;;10.20;79.90;;;;;;2104911;28;20344;-65
2023/06/13 03:51:25;;;;;;;8.83;4.13;;;10.20;80.10;;;;;;2105191;28;20223;-65
2023/06/13 03:52:26;;;;;;;5.83;4.47;;;10.10;79.70;;;;;;2106078;28;20313;-66
2023/06/13 03:53:27;;;;;;;6.60;4.50;;;10.10;79.50;;;;;;2101949;28;20246;-64
2023/06/13 03:54:27;;;;;;;8.73;4.77;;;10.00;79.80;;;;;;2084601;28;20690;-66
2023/06/13 03:55:29;;;;;;;6.80;4.77;;;9.90;80.00;;;;;;2093540;28;20223;-65
2023/06/13 03:56:30;;;;;;;5.18;4.32;;;9.90;79.70;;;;;;2095058;28;20315;-66
2023/06/13 03:57:31;;;;;;;6.33;4.30;;;9.90;79.70;;;;;;2095820;28;20225;-65
2023/06/13 03:58:34;;;;;;;5.63;4.18;;;9.90;80.30;;;;;;2088384;28;20231;-65
2023/06/13 03:59:35;;;;;;;5.47;4.05;;;9.90;80.60;;;;;;2094964;28;20312;-65
2023/06/13 04:00:39;;;;;;;5.63;3.78;;;9.90;80.60;;;;;;2094196;28;20231;-65
2023/06/13 04:01:41;;;;;;;5.50;3.78;;;9.90;80.90;;;;;;2089513;28;20846;-65
2023/06/13 04:02:42;;;;;;;5.03;3.45;;;9.90;80.90;;;;;;2097098;28;20227;-66
2023/06/13 04:03:44;;;;;;;4.90;3.33;;;9.90;81.10;;;;;;2104906;28;20226;-65
2023/06/13 04:04:46;;;;;;;4.32;3.35;;;10.00;81.10;;;;;;2096334;28;20250;-65
2023/06/13 04:05:46;;;;;;;3.63;3.05;;;10.00;81.10;;;;;;2088994;28;20234;-66
2023/06/13 04:06:49;;;;;;;4.67;3.37;;;10.00;81.30;;;;;;2097159;28;20318;-65
2023/06/13 04:07:49;;;;;;;7.05;3.45;;;10.00;81.40;;;;;;2096385;28;20322;-67
2023/06/13 04:08:50;;;;;;;5.17;3.50;;;10.00;81.20;;;;;;2101386;28;20247;-66
2023/06/13 04:09:51;;;;;;;4.70;3.83;;;10.10;81.20;;;;;;2108185;28;20282;-66
2023/06/13 04:10:52;;;;;;;3.80;3.40;;;10.10;80.90;;;;;;2105252;28;20231;-66
2023/06/13 04:11:52;;;;;;;5.37;4.03;;;9.90;81.30;;;;;;2105402;28;20227;-66
2023/06/13 04:12:53;;;;;;;5.00;3.57;;;10.00;81.80;;;;;;2099871;28;20263;-67
2023/06/13 04:13:55;;;;;;;5.65;4.00;;;9.90;81.80;;;;;;2109462;28;20626;-67
2023/06/13 04:14:57;;;;;;;5.40;4.38;;;10.00;81.50;;;;;;2104397;28;20261;-66
2023/06/13 04:15:58;;;;;;;4.60;4.03;;;9.90;81.40;;;;;;2103119;28;20266;-66
2023/06/13 04:17:02;;;;;;;4.97;4.27;;;9.90;81.50;;;;;;2094781;28;20234;-66
2023/06/13 04:18:03;;;;;;;5.03;3.83;;;9.90;80.80;;;;;;2101032;28;20234;-66
2023/06/13 04:19:03;;;;;;;5.00;4.07;;;9.90;80.90;;;;;;2102181;28;20213;-66
2023/06/13 04:20:05;;;;;;;4.67;3.67;;;9.90;81.00;;;;;;2100772;28;20278;-66
2023/06/13 04:21:09;;;;;;;5.20;3.70;;;9.90;81.40;;;;;;2104328;28;20195;-66
2023/06/13 04:22:09;;;;;;;5.35;3.80;;;10.00;81.20;;;;;;2096687;28;20789;-66
2023/06/13 04:23:10;;;;;;;4.43;3.53;;;10.00;81.40;;;;;;2096604;28;20300;-66
2023/06/13 04:24:15;;;;;;;5.53;3.60;;;9.90;81.90;;;;;;2103273;28;20646;-66
2023/06/13 04:25:16;;;;;;;4.82;3.83;;;9.90;82.00;;;;;;2102275;28;20206;-65
2023/06/13 04:26:17;;;;;;;3.97;3.50;;;9.90;81.80;;;;;;2089004;28;20196;-66
2023/06/13 04:27:19;;;;;;;4.47;3.40;;;10.00;81.50;;;;;;2096551;28;20213;-66
2023/06/13 04:28:22;;;;;;;4.70;3.38;;;10.00;82.70;;;;;;2105103;28;20237;-66
2023/06/13 04:29:25;;;;;;;4.78;3.35;;;10.00;82.50;;;;;;2101826;28;20220;-66
2023/06/13 04:30:28;;;;;;;4.05;3.28;;;10.00;82.20;;;;;;2104595;28;20231;-65
2023/06/13 04:31:34;;;;;;;4.32;3.47;;;10.10;82.00;;;;;;2103862;28;20786;-66
2023/06/13 04:32:37;;;;;;;5.10;3.22;;;10.10;81.80;;;;;;2097991;28;20223;-66
2023/06/13 04:33:39;;;;;;;4.90;3.83;;;10.10;81.60;;;;;;2103976;28;20650;-66
2023/06/13 04:34:52;;;;;;;5.70;3.22;;;10.20;81.70;;;;;;2104332;28;20220;-66
2023/06/13 04:35:54;;;;;;;5.00;3.65;;;10.20;81.40;;;;;;2105082;28;20220;-66
2023/06/13 04:36:55;;;;;;;4.20;3.50;;;10.30;80.50;;;;;;2098680;28;20366;-66
2023/06/13 04:37:56;;;;;;;4.80;3.50;;;10.40;80.40;;;;;;2094095;28;20265;-69
2023/06/13 04:38:57;;;;;;;4.53;3.70;;;10.40;79.20;;;;;;2105525;28;20761;-66
2023/06/13 04:40:05;;;;;;;4.90;3.40;;;10.40;79.70;;;;;;2101894;28;20232;-66
2023/06/13 04:41:13;;;;;;;3.80;2.95;;;10.40;79.50;;;;;;2105447;28;20190;-66
2023/06/13 04:42:14;;;;;;;5.30;3.28;;;10.40;79.80;;;;;;2105039;28;20177;-66
2023/06/13 04:43:16;;;;;;;6.97;3.30;;;10.40;79.40;;;;;;2105554;28;20671;-66
2023/06/13 04:44:17;;;;;;;5.65;3.50;;;10.50;79.20;;;;;;2103992;28;20186;-66
2023/06/13 04:45:22;;;;;;;4.33;2.93;;;10.60;79.10;;;;;;2096509;28;20190;-66
2023/06/13 04:46:24;;;;;;;4.65;3.30;;;10.50;78.70;;;;;;2103527;28;20222;-66
2023/06/13 04:47:47;;;;;;;5.30;3.17;;;10.60;78.70;;;;;;2105958;28;20246;-66
2023/06/13 04:48:48;;;;;;;5.47;3.20;;;10.50;79.00;;;;;;2102348;28;20280;-66
2023/06/13 04:49:51;;;;;;;4.47;3.53;;;10.60;79.20;;;;;;2104988;28;20221;-66
2023/06/13 04:50:53;;;;;;;4.28;3.28;;;10.60;79.10;;;;;;2099594;28;20270;-65
2023/06/13 04:51:55;;;;;;;4.25;3.10;;;10.70;78.80;;;;;;2095747;28;20230;-67
2023/06/13 04:52:57;;;;;;;3.92;3.00;;;10.60;78.90;;;;;;2104311;28;20275;-66
2023/06/13 04:53:58;;;;;;;3.97;2.90;;;10.70;79.60;;;;;;2107746;28;20225;-66
2023/06/13 04:55:00;;;;;;;4.82;3.00;;;10.60;79.50;;;;;;2107718;28;20709;-66
2023/06/13 04:56:01;;;;;;;5.43;3.42;;;10.70;79.30;;;;;;2100638;28;21010;-67
2023/06/13 04:57:02;;;;;;;3.20;2.80;;;10.80;79.00;;;;;;2101637;28;20199;-66
2023/06/13 04:58:04;;;;;;;3.35;3.00;;;10.90;78.00;;;;;;2106303;28;20214;-67
2023/06/13 04:59:05;;;;;;;4.68;3.25;;;10.90;77.70;;;;;;2106088;28;20191;-66
2023/06/13 05:00:09;;;;;;;3.60;3.20;;;11.00;77.10;;;;;;2109755;28;20190;-67
2023/06/13 05:01:11;;;;;;;4.13;3.13;;;11.00;77.40;;;;;;2109406;28;20182;-67
2023/06/13 05:02:14;;;;;;;4.38;3.35;;;11.00;78.20;;;;;;2096923;28;20191;-66
2023/06/13 05:03:18;;;;;;;3.60;3.20;;;10.90;78.30;;;;;;2086442;28;20223;-66
2023/06/13 05:04:19;;;;;;;4.28;3.13;;;11.00;78.30;;;;;;2094325;28;20666;-66
2023/06/13 05:05:22;;;;;;;4.47;3.27;;;11.00;77.90;;;;;;2096849;28;20231;-66
2023/06/13 05:06:23;;;;;;;3.75;2.90;;;11.00;78.60;;;;;;2091913;28;20936;-65
2023/06/13 05:07:28;;;;;;;4.17;3.33;;;11.00;78.50;;;;;;2089039;28;20256;-66
2023/06/13 05:08:30;;;;;;;4.68;3.08;;;10.90;78.10;;;;;;2089031;28;20765;-66
2023/06/13 05:09:33;;;;;;;3.85;3.13;;;10.90;78.10;;;;;;2087997;28;20264;-65
2023/06/13 05:10:34;;;;;;;5.15;3.25;;;10.90;77.80;;;;;;2097135;28;20230;-66
2023/06/13 05:11:36;;;;;;;3.30;2.67;;;10.90;78.20;;;;;;2085384;28;20276;-66
2023/06/13 05:12:36;;;;;;;4.90;3.33;;;10.80;78.40;;;;;;2085471;28;20224;-65
2023/06/13 05:13:37;;;;;;;3.73;3.20;;;10.90;78.10;;;;;;2093048;28;20238;-65
2023/06/13 05:14:42;;;;;;;4.50;2.60;;;11.10;77.10;;;;;;2095041;28;20923;-65
2023/06/13 05:15:44;;;;;;;3.17;2.78;;;11.20;76.80;;;;;;2095129;28;20234;-66
2023/06/13 05:16:47;;;;;;;11.00;10.18;;;11.20;78.30;;;;;;2094399;28;20226;-65
2023/06/13 05:17:54;;;;;;;4.75;3.08;;;11.00;78.10;;;;;;2094566;28;20288;-65
2023/06/13 05:19:00;;;;;;;3.25;2.70;;;10.80;79.30;;;;;;2093999;28;20224;-65
2023/06/13 05:20:01;;;;;;;5.90;2.80;;;10.80;78.70;;;;;;2090510;28;20309;-66
2023/06/13 05:21:01;;;;;;;3.72;2.92;;;10.90;78.40;;;;;;2092907;28;20311;-66
2023/06/13 05:22:03;;;;;;;5.93;3.63;;;11.10;77.40;;;;;;2084490;28;20226;-65
2023/06/13 05:23:03;;;;;;;7.22;2.88;;;11.20;76.70;;;;;;2096818;28;20205;-66
2023/06/13 05:24:07;;;;;;;3.63;2.90;;;11.20;75.90;;;;;;2103384;28;20226;-66
2023/06/13 05:25:11;;;;;;;3.28;2.90;;;11.30;75.90;;;;;;2104774;28;20194;-65
2023/06/13 05:26:12;;;;;;;3.50;3.17;;;11.40;75.20;;;;;;2105683;28;20754;-65
2023/06/13 05:27:13;;;;;;;5.70;3.07;;;11.40;73.00;;;;;;2105861;28;20197;-66
2023/06/13 05:28:14;;;;;;;5.00;2.87;;;11.40;74.30;;;;;;2105468;28;20202;-65